YFSK weather

Fiskville Airport
Fiskville, Victoria, Australia

Public forecast

Using degrees Celsius for public forecast. Weather courtesy of forecast.io.

METAR (pilot weather report)

Closest report is Avalon Airport, 24.7 nm (45.7 km) SSE. Retrieved 2019/02/16 21:30 UTC (17 minutes ago):

YMAV 162130Z AUTO 29004KT 9999 // NCD 17/15 Q1012 RF00.0/000.0

TAF (pilot weather forecast)

Forecast is more than 6 hours old.

Closest forecast is Avalon Airport, 24.7 nm (45.7 km) SSE. Retrieved 2019/02/16 12:00 UTC (10 hours ago):

TAF YMAV 161110Z 1612/1712 16007KT 9999 BKN015 BECMG 1616/1618 VRB04KT 9999 BKN010 FM162000 VRB04KT 9999 BKN006 BECMG 1622/1624 VRB04KT 9999 SCT012 FM170200 20010KT CAVOK BECMG 1710/1712 VRB05KT 9999 BKN008